« 就航 富山空港 2020/3/19 thu | トップページ | 定点 富山空港 2020/3/24 tue »

2020/03/22

東京 2020 オリンピック 聖火リレー 聖火到着式 松島飛行場 2020/3/20 fri

新型コロナウイルスの蔓延によって、世界的にはパンデミックに突入している。ギリシャでの聖火摂火式からも規模を縮小して、こじんまりと実施されていた。聖火リレーは予定通り始まり、この日ギリシャから聖火が、航空自衛隊松島基地に到着する。

20200320_rjst_00bi

朝5時過ぎ、現地着。まだ真っ暗な中、ブルーエプロンはすでに始動していた。

20200320_rjst_01bi

夜撮りできたのも、神の御加護。

20200320_rjst_02rw25

5時半過ぎから滑走路清掃が、始まり始まり

20200320_rjst_03bi

格納庫から機体が引き出されます。

20200320_rjst_04bi

エプロンにラインアップ

20200320_rjst_05bi

番号がみごとに続いています。

20200320_rjst_06bi

B編隊もシーケンスに

20200320_rjst_07e

式典会場は、まだ静かな様子

20200320_rjst_08rw33

本日は、この辺りに陣取ることにしました。

METAR RJST 200000Z 32025G35KT 9999 FEW030 SCT040 BKN120 08/M00 Q0995 RMK 2CU030 4CU040 6AC120 A2940

RJST 200001Z 32029G39KT 9999 -SHRA DRSA FEW030 SCT040 BKN120 08/M00 Q0994 RMK 2CU030 3CU040 5AC120 A2938

20200320_rjst_09ja62nh

JA62NH AS356N2 ANH

9時過ぎ、NHKの取材へりが南側洋上で待機

20200320_rjst_10ja119m

JA119M AW139 宮城県警察

周辺警備に警察へり

20200320_rjst_11ja837j

9:27 2020インサイト 新潟を経由して松島レーダーへ

20200320_rjst_12ja837j

PARに誘導されて、東からファイナル

20200320_rjst_13ja837j

右側からの強風のクロスです。

20200320_rjst_14ja837j

風力発電は、強風過ぎて止まってます。

20200320_rjst_15ja837j

上品山レーダーと

20200320_rjst_16ja837j

ブルーハンガー前を通過して

20200320_rjst_17ja837j

無事ランディング 見事な操縦です。

20200320_rjst_18ja837j

TWYをそろりそろりと進んできます。

20200320_rjst_19ja837j

20200320_rjst_20ja837j

松島タワー

20200320_rjst_21ja837j

クロスRW33

20200320_rjst_22ja837j

エプロンへ昇っていきます。

20200320_rjst_23ja837j

お尻もキュート

20200320_rjst_24ja837j

JAL2020 LGAV-RJST JA837J B787-8

20200320_rjst_25ja837j

アテネへの迎の便は、 JAL1964

雁行してきた予備機は、 JAL8922 LGAV-RJAA JA840J B787-8

20200320_rjst_26ja837j

消防車さん、お疲れ様

20200320_rjst_27ja837j

天候は悪化 砂塵が舞い上がって、もやもや

RJST 200142Z 31033G51KT 9999 -SHRA DRSA FEW030 BKN050 10/M03 Q0997 RMK 1CU030 6CU050 A2945 VIS E 7K

20200320_rjst_28e

式典会場の真ん中に聖火台を確認

20200320_rjst_29bi065787

11時過ぎ ブルーがタクシー開始

20200320_rjst_30bi

ブルーエプロンから、まずアルファ編隊

20200320_rjst_31bi

RW25へ

20200320_rjst_32bi

20200320_rjst_33bi

ここで、ランナップ スモークカット

20200320_rjst_34bi

上空は雲の切れ間も多く、直接陽があたることも

20200320_rjst_35bi

Cを通って RW33だ

20200320_rjst_36bi

こんな至近で見れる場所は、他にはあるまい。

20200320_rjst_37bi

4機がオン・アクティブ

20200320_rjst_38bi

#5,#6が待機中

20200320_rjst_39bi

ブラボー編隊もランナップ

20200320_rjst_40bi

ブルーエプロン横の土手も人がいっぱい。

20200320_rjst_41bi

20200320_rjst_42bi

アルファ離陸

20200320_rjst_43bi

4機連続

20200320_rjst_44bi

20200320_rjst_45bi

すかさず#5,#6が入って

###

東京2020オリンピック聖火到着式ブルーインパルスコクピット映像(VR仕様)

###

20200320_rjst_46bi

ブラボーが続きます

20200320_rjst_47bi

20200320_rjst_48bi

エアボーンするとすぐレフトターン 西へ

20200320_rjst_49bi

ブラボーの編隊長機は、通常塗装の#752

20200320_rjst_50bi

20200320_rjst_51bi

排煙かぶり しあわせ・・

20200320_rjst_52bi

20200320_rjst_53bi

20200320_rjst_54bi

20200320_rjst_55bi

上空に上がってから、スモークチェック

20200320_rjst_56bi

左廻りでホールディング

20200320_rjst_57bi

ブラボーが上の高度

20200320_rjst_58bi

時間調整やら例のヘリやらで、なかなか苦労してます。

20200320_rjst_59bi

オリンピック・シンボル!

20200320_rjst_60bi

低い、遠い なんとか見えてるけど・・

20200320_rjst_61bi

アップするとスモークの色が確認できました。

20200320_rjst_62bi

終了

20200320_rjst_63bi

洋上へ抜けます

20200320_rjst_64bi

続いて、ブラボーのリーダーズ・ベネフィット・ローパス

20200320_rjst_65bi

20200320_rjst_66bi

20200320_rjst_67bi

遠目に見ると、雲バックではっきりしないね

20200320_rjst_68bi

20200320_rjst_69bi

暴風の中でしたが、無事描ききりました。

20200320_rjst_70bi

この間関係したトラフィックは

JA756D セコム(オリンピック委員会)
JA03AP 朝日新聞

20200320_rjst_71bi

洋上に出て、すぐダイレクトRW33で着陸へ

20200320_rjst_72bi065787

この場所で見る着陸も新鮮

20200320_rjst_73bi065787

06-5787 T-4 11SQ BIA1

20200320_rjst_74bi165666

16-5666 T-4 11SQ BIA2

20200320_rjst_75bi665745

66-5745 T-4 11SQ BIA3

20200320_rjst_76bi465731

46-5731 T-4 11SQ BIA4

20200320_rjst_77bi065790

06-5790 T-4 11SQ BIA5

20200320_rjst_78bi265686

26-5686 T-4 11SQ BIA6

20200320_rjst_79bi265752

76-5752 T-4 11SQ BIB1

20200320_rjst_80bi165663

16-5663 T-4 11SQ BIB2

20200320_rjst_81bi665745

36-5694 T-4 11SQ BIB3

20200320_rjst_82bi365693

36-5693 T-4 11SQ BIB4

20200320_rjst_83bi265690

おっと、ここで#5がG/A

20200320_rjst_84bi365697

36-5697 T-4 11SQ BIB6

20200320_rjst_85bi265690

26-5690 T-4 11SQ BIB5

20200320_rjst_86bi265690

12機無事にランディング

20200320_rjst_87bi

この場所で、駐機に

20200320_rjst_88ja837j

いよいよ聖火が降機の様子かな

20200320_rjst_89ja837j

遠目にサンドウィッチマンの姿が確認できました。12:20

20200320_rjst_90bi

駐機したT-4さんは、ぞろぞろドナドナされてブルーエプロンに帰ります。

20200320_rjst_91ja837j

20200320_rjst_92ja837j

20200320_rjst_93ja837j

14時過ぎて、特別機は成田へ回航へ

20200320_rjst_94ja837j

20200320_rjst_95ja837j

この頃、暴風に飛ばされた雨がザザザ

20200320_rjst_96ja837j

20200320_rjst_97ja837j

JAL8126 RJST-RJAA JA837J B787-8

20200320_rjst_98ja837j

大役お疲れ様でした。

20200320_rjst_99rainbow

帰路、虹が皆さんを祝福してくれました。

RJST 200522Z 28026G38KT 9999 DRSA FEW040 10/M02 Q0999 RMK 2CU040 A2951 VIS E 8K

 

|

« 就航 富山空港 2020/3/19 thu | トップページ | 定点 富山空港 2020/3/24 tue »

BI」カテゴリの記事

松島飛行場」カテゴリの記事

コメント

コメントを書く



(ウェブ上には掲載しません)


コメントは記事投稿者が公開するまで表示されません。



« 就航 富山空港 2020/3/19 thu | トップページ | 定点 富山空港 2020/3/24 tue »